createdAt,value
2022-08-09T00:01:43.218Z,100757.22
2022-08-09T00:04:33.863Z,100755.97
2022-08-09T00:07:07.679Z,100762.06
2022-08-09T00:09:39.317Z,100756.13
2022-08-09T00:12:09.707Z,100758.75
2022-08-09T00:14:51.172Z,100761.81
2022-08-09T00:18:05.710Z,100753.53
2022-08-09T00:20:13.816Z,100739.94
2022-08-09T00:22:44.824Z,100746.75
2022-08-09T00:25:15.352Z,100753.66
2022-08-09T00:27:53.040Z,100738.03
2022-08-09T00:30:25.327Z,100737.34
2022-08-09T00:32:54.432Z,100739.56
2022-08-09T00:35:24.038Z,100739.44
2022-08-09T00:37:57.401Z,100733.47
2022-08-09T00:40:30.348Z,100740.28
2022-08-09T00:44:20.482Z,100732.25
2022-08-09T00:45:50.687Z,100737.53
2022-08-09T00:48:22.231Z,100732.81
2022-08-09T00:50:52.358Z,100737.81
2022-08-09T00:53:24.077Z,100736.69
2022-08-09T00:56:04.621Z,100733.22
2022-08-09T00:58:36.055Z,100738.50
2022-08-09T01:01:16.227Z,100736.59
2022-08-09T01:03:52.553Z,100736.03
2022-08-09T01:06:53.160Z,100740.63
2022-08-09T01:09:36.649Z,100744.50
2022-08-09T01:12:13.950Z,100735.88
2022-08-09T01:14:56.893Z,100736.88
2022-08-09T01:17:30.425Z,100741.03
2022-08-09T01:20:04.795Z,100734.25
2022-08-09T01:24:00.943Z,100732.31
2022-08-09T01:26:09.579Z,100731.19
2022-08-09T01:28:43.571Z,100740.31
2022-08-09T01:32:29.703Z,100733.53
2022-08-09T01:34:09.312Z,100734.88
2022-08-09T01:36:39.979Z,100739.19
2022-08-09T01:39:08.778Z,100740.97
2022-08-09T01:41:56.101Z,100737.78
2022-08-09T01:44:32.202Z,100739.75
2022-08-09T01:47:02.027Z,100738.63
2022-08-09T01:49:39.033Z,100723.13
2022-08-09T01:52:11.820Z,100732.41
2022-08-09T01:54:48.501Z,100730.72
2022-08-09T01:57:18.522Z,100733.63
2022-08-09T01:59:53.325Z,100728.38
2022-08-09T02:02:32.529Z,100732.25
2022-08-09T02:05:15.176Z,100736.81
2022-08-09T02:08:35.282Z,100734.59
2022-08-09T02:10:42.862Z,100734.31
2022-08-09T02:13:21.929Z,100746.09
2022-08-09T02:15:57.789Z,100731.38
2022-08-09T02:18:31.691Z,100746.06
2022-08-09T02:21:06.936Z,100749.66
2022-08-09T02:23:42.999Z,100746.19
2022-08-09T02:26:24.808Z,100753.25
2022-08-09T02:28:57.271Z,100752.94
2022-08-09T02:31:34.279Z,100755.84
2022-08-09T02:34:13.872Z,100753.75
2022-08-09T02:37:03.550Z,100748.91
2022-08-09T02:39:41.873Z,100751.66
2022-08-09T02:42:19.296Z,100760.34
2022-08-09T02:44:58.961Z,100753.56
2022-08-09T02:47:33.979Z,100753.41
2022-08-09T02:50:18.630Z,100757.03
2022-08-09T02:52:56.577Z,100755.63
2022-08-09T02:55:46.334Z,100757.56
2022-08-09T02:58:37.039Z,100751.59
2022-08-09T03:01:07.809Z,100747.31
2022-08-09T03:04:17.095Z,100747.59
2022-08-09T03:06:29.731Z,100750.22
2022-08-09T03:08:58.861Z,100754.19
2022-08-09T03:12:06.287Z,100733.66
2022-08-09T03:14:19.779Z,100741.16
2022-08-09T03:16:55.940Z,100742.25
2022-08-09T03:19:58.883Z,100748.00
2022-08-09T03:22:41.736Z,100751.72
2022-08-09T03:25:26.446Z,100746.63
2022-08-09T03:28:02.063Z,100746.88
2022-08-09T03:30:36.535Z,100752.66
2022-08-09T03:33:17.958Z,100759.44
2022-08-09T03:36:12.736Z,100749.31
2022-08-09T03:38:42.012Z,100753.88
2022-08-09T03:41:15.175Z,100751.78
2022-08-09T03:44:03.148Z,100760.88
2022-08-09T03:46:34.526Z,100773.03
2022-08-09T03:49:07.873Z,100772.97
2022-08-09T03:51:57.487Z,100768.34
2022-08-09T03:54:31.822Z,100781.97
2022-08-09T03:57:17.867Z,100781.97
2022-08-09T03:59:54.995Z,100782.59
2022-08-09T04:02:30.043Z,100781.38
2022-08-09T04:05:00.967Z,100781.56
2022-08-09T04:07:47.743Z,100784.63
2022-08-09T04:10:29.699Z,100784.19
2022-08-09T04:13:03.910Z,100787.63
2022-08-09T04:16:17.097Z,100775.06
2022-08-09T04:18:21.907Z,100792.25
2022-08-09T04:20:51.446Z,100794.75
2022-08-09T04:23:24.775Z,100786.16
2022-08-09T04:25:55.371Z,100794.44
2022-08-09T04:28:33.349Z,100790.38
2022-08-09T04:31:08.574Z,100796.16
2022-08-09T04:33:47.489Z,100799.94
2022-08-09T04:36:24.756Z,100786.19
2022-08-09T04:38:55.797Z,100801.53
2022-08-09T04:41:33.345Z,100803.72
2022-08-09T04:44:06.581Z,100809.56
2022-08-09T04:46:58.384Z,100809.19
2022-08-09T04:49:53.341Z,100814.03
2022-08-09T04:52:32.408Z,100822.53
2022-08-09T04:55:04.689Z,100824.50
2022-08-09T04:57:54.163Z,100831.56
2022-08-09T05:00:31.852Z,100827.50
2022-08-09T05:03:12.770Z,100843.78
2022-08-09T05:06:06.759Z,100843.59
2022-08-09T05:08:38.862Z,100845.78
2022-08-09T05:11:13.330Z,100851.41
2022-08-09T05:13:43.803Z,100848.88
2022-08-09T05:16:12.109Z,100853.59
2022-08-09T05:18:57.710Z,100842.25
2022-08-09T05:21:29.878Z,100847.78
2022-08-09T05:24:01.411Z,100845.84
2022-08-09T05:26:45.427Z,100860.50
2022-08-09T05:29:21.913Z,100850.44
2022-08-09T05:31:57.667Z,100861.78
2022-08-09T05:34:30.868Z,100864.56
2022-08-09T05:37:02.449Z,100860.13
2022-08-09T05:39:36.176Z,100863.31
2022-08-09T05:42:17.438Z,100863.59
2022-08-09T05:44:50.806Z,100858.72
2022-08-09T05:47:19.214Z,100863.31
2022-08-09T05:50:31.069Z,100861.13
2022-08-09T05:52:36.350Z,100864.41
2022-08-09T05:55:08.643Z,100866.25
2022-08-09T05:57:51.315Z,100872.06
2022-08-09T06:00:26.950Z,100865.66
2022-08-09T06:02:57.789Z,100877.47
2022-08-09T06:05:30.790Z,100876.34
2022-08-09T06:08:19.686Z,100885.44
2022-08-09T06:10:55.022Z,100890.84
2022-08-09T06:13:25.010Z,100890.50
2022-08-09T06:15:53.871Z,100890.59
2022-08-09T06:18:25.445Z,100890.28
2022-08-09T06:20:57.650Z,100899.31
2022-08-09T06:23:57.902Z,100896.56
2022-08-09T06:26:21.029Z,100898.84
2022-08-09T06:29:00.854Z,100894.91
2022-08-09T06:31:40.673Z,100901.31
2022-08-09T06:34:26.272Z,100898.31
2022-08-09T06:36:59.777Z,100908.19
2022-08-09T06:39:49.119Z,100907.94
2022-08-09T06:42:20.213Z,100915.88
2022-08-09T06:44:54.762Z,100909.06
2022-08-09T06:47:24.198Z,100904.81
2022-08-09T06:50:14.195Z,100913.81
2022-08-09T06:52:46.008Z,100915.19
2022-08-09T06:55:16.748Z,100923.38
2022-08-09T06:58:02.955Z,100923.03
2022-08-09T07:00:48.871Z,100924.44
2022-08-09T07:03:27.010Z,100926.09
2022-08-09T07:06:02.589Z,100926.75
2022-08-09T07:08:35.291Z,100934.59
2022-08-09T07:11:06.770Z,100934.59
2022-08-09T07:13:45.123Z,100934.41
2022-08-09T07:16:41.708Z,100933.31
2022-08-09T07:19:18.812Z,100930.22
2022-08-09T07:21:57.462Z,100936.06
2022-08-09T07:24:32.520Z,100934.50
2022-08-09T07:27:10.877Z,100939.06
2022-08-09T07:29:57.111Z,100937.00
2022-08-09T07:32:32.424Z,100939.38
2022-08-09T07:35:07.939Z,100948.16
2022-08-09T07:37:42.841Z,100944.97
2022-08-09T07:40:17.238Z,100943.44
2022-08-09T07:42:50.463Z,100956.72
2022-08-09T07:45:23.774Z,100948.59
2022-08-09T07:48:28.301Z,100949.31
2022-08-09T07:51:09.490Z,100944.59
2022-08-09T07:54:07.731Z,100952.00
2022-08-09T07:56:34.742Z,100958.53
2022-08-09T07:59:15.836Z,100957.06
2022-08-09T08:01:54.077Z,100952.22
2022-08-09T08:04:25.519Z,100953.31
2022-08-09T08:07:00.271Z,100961.97
2022-08-09T08:09:42.996Z,100952.00
2022-08-09T08:12:27.738Z,100957.81
2022-08-09T08:14:57.073Z,100949.09
2022-08-09T08:17:52.232Z,100958.81
2022-08-09T08:20:19.493Z,100947.50
2022-08-09T08:22:58.713Z,100953.91
2022-08-09T08:25:43.851Z,100960.56
2022-08-09T08:28:25.653Z,100960.16
2022-08-09T08:31:02.439Z,100956.94
2022-08-09T08:33:40.689Z,100950.69
2022-08-09T08:36:29.809Z,100951.81
2022-08-09T08:38:59.681Z,100965.09
2022-08-09T08:41:50.896Z,100945.09
2022-08-09T08:44:27.421Z,100948.03
2022-08-09T08:47:04.573Z,100945.66
2022-08-09T08:49:48.638Z,100946.16
2022-08-09T08:55:17.193Z,100952.69
2022-08-09T08:57:56.908Z,100950.69
2022-08-09T09:00:30.475Z,100950.09
2022-08-09T09:03:08.588Z,100949.06
2022-08-09T09:06:00.787Z,100948.19
2022-08-09T09:08:40.691Z,100945.69
2022-08-09T09:11:13.660Z,100939.97
2022-08-09T09:13:56.642Z,100947.72
2022-08-09T09:16:31.077Z,100945.34
2022-08-09T09:19:22.809Z,100939.97
2022-08-09T09:22:04.255Z,100940.56
2022-08-09T09:24:39.756Z,100941.16
2022-08-09T09:27:22.134Z,100946.53
2022-08-09T09:30:26.189Z,100934.19
2022-08-09T09:33:15.830Z,100936.66
2022-08-09T09:36:01.802Z,100937.28
2022-08-09T09:38:43.415Z,100932.94
2022-08-09T09:41:33.241Z,100935.03
2022-08-09T09:44:12.857Z,100940.69
2022-08-09T09:46:45.940Z,100937.59
2022-08-09T09:49:31.748Z,100930.38
2022-08-09T09:52:33.281Z,100929.16
2022-08-09T09:55:16.200Z,100929.00
2022-08-09T09:58:12.500Z,100924.50
2022-08-09T10:00:54.171Z,100928.47
2022-08-09T10:03:56.088Z,100932.63
2022-08-09T10:06:25.849Z,100926.59
2022-08-09T10:09:02.852Z,100930.50
2022-08-09T10:11:54.017Z,100922.81
2022-08-09T10:14:33.401Z,100938.28
2022-08-09T10:17:39.609Z,100918.69
2022-08-09T10:20:04.240Z,100920.63
2022-08-09T10:22:35.025Z,100925.22
2022-08-09T10:25:11.717Z,100928.75
2022-08-09T10:27:57.797Z,100933.97
2022-08-09T10:33:29.855Z,100941.94
2022-08-09T10:36:09.369Z,100928.13
2022-08-09T10:38:57.286Z,100910.50
2022-08-09T10:41:28.609Z,100917.81
2022-08-09T10:43:59.957Z,100907.28
2022-08-09T10:47:03.802Z,100917.31
2022-08-09T10:49:51.688Z,100906.53
2022-08-09T10:52:42.784Z,100907.41
2022-08-09T10:55:24.362Z,100919.66
2022-08-09T10:57:55.894Z,100912.53
2022-08-09T11:00:41.812Z,100917.50
2022-08-09T11:03:49.584Z,100917.13
2022-08-09T11:06:26.297Z,100902.59
2022-08-09T11:08:55.016Z,100902.31
2022-08-09T11:12:11.713Z,100903.88
2022-08-09T11:14:44.724Z,100890.28
2022-08-09T11:17:53.161Z,100898.75
2022-08-09T11:20:41.726Z,100894.75
2022-08-09T11:23:13.598Z,100894.97
2022-08-09T11:25:50.230Z,100883.47
2022-08-09T11:28:56.186Z,100884.06
2022-08-09T11:31:49.564Z,100902.81
2022-08-09T11:34:34.966Z,100899.88
2022-08-09T11:37:09.086Z,100902.84
2022-08-09T11:40:05.055Z,100912.38
2022-08-09T11:42:47.135Z,100919.69
2022-08-09T11:45:26.306Z,100933.56
2022-08-09T11:48:24.981Z,100909.78
2022-08-09T11:51:19.514Z,100917.50
2022-08-09T11:54:27.732Z,100894.66
2022-08-09T11:57:47.821Z,100881.38
2022-08-09T12:00:27.635Z,100886.34
2022-08-09T12:02:57.540Z,100876.47
2022-08-09T12:05:39.630Z,100887.75
2022-08-09T12:08:12.173Z,100875.03
2022-08-09T12:10:48.453Z,100882.69
2022-08-09T12:14:07.755Z,100879.91
2022-08-09T12:16:37.911Z,100875.41
2022-08-09T12:19:12.080Z,100874.25
2022-08-09T12:21:48.818Z,100868.94
2022-08-09T12:24:23.908Z,100869.31
2022-08-09T12:29:10.894Z,100870.16
2022-08-09T12:30:29.866Z,100870.16
2022-08-09T12:32:48.840Z,100865.53
2022-08-09T12:35:21.603Z,100854.63
2022-08-09T12:37:52.098Z,100848.25
2022-08-09T12:40:27.011Z,100828.34
2022-08-09T12:42:57.058Z,100832.16
2022-08-09T12:45:34.615Z,100845.41
2022-08-09T12:48:31.082Z,100846.47
2022-08-09T12:51:00.443Z,100838.44
2022-08-09T12:53:38.170Z,100839.44
2022-08-09T12:56:39.856Z,100844.06
2022-08-09T12:59:10.515Z,100848.53
2022-08-09T13:01:46.770Z,100841.09
2022-08-09T13:04:38.139Z,100837.88
2022-08-09T13:07:14.689Z,100832.31
2022-08-09T13:09:52.691Z,100828.72
2022-08-09T13:12:24.184Z,100824.84
2022-08-09T13:14:55.008Z,100840.41
2022-08-09T13:17:58.763Z,100838.56
2022-08-09T13:20:23.472Z,100847.28
2022-08-09T13:23:04.750Z,100840.59
2022-08-09T13:25:42.956Z,100847.50
2022-08-09T13:28:34.577Z,100844.47
2022-08-09T13:32:12.383Z,100856.88
2022-08-09T13:33:56.961Z,100851.53
2022-08-09T13:36:42.314Z,100832.63
2022-08-09T13:41:55.680Z,100830.78
2022-08-09T13:42:04.978Z,100837.78
2022-08-09T13:44:34.647Z,100833.72
2022-08-09T13:47:26.788Z,100828.50
2022-08-09T13:49:57.346Z,100831.50
2022-08-09T13:52:28.177Z,100833.75
2022-08-09T13:55:00.028Z,100827.81
2022-08-09T13:57:36.520Z,100811.13
2022-08-09T14:00:12.168Z,100824.78
2022-08-09T14:03:16.843Z,100823.47
2022-08-09T14:05:58.554Z,100800.50
2022-08-09T14:08:29.678Z,100796.53
2022-08-09T14:11:00.209Z,100808.91
2022-08-09T14:14:23.240Z,100799.81
2022-08-09T14:16:19.974Z,100790.88
2022-08-09T14:18:58.257Z,100793.13
2022-08-09T14:21:29.521Z,100794.31
2022-08-09T14:24:10.516Z,100800.25
2022-08-09T14:26:56.356Z,100795.81
2022-08-09T14:30:34.592Z,100790.72
2022-08-09T14:32:19.625Z,100790.47
2022-08-09T14:34:57.003Z,100797.66
2022-08-09T14:37:28.396Z,100792.28
2022-08-09T14:39:58.572Z,100801.97
2022-08-09T14:42:30.801Z,100795.28
2022-08-09T14:46:38.826Z,100788.44
2022-08-09T14:48:02.302Z,100780.63
2022-08-09T14:50:33.032Z,100771.78
2022-08-09T14:53:02.639Z,100770.66
2022-08-09T14:55:33.053Z,100771.69
2022-08-09T14:58:03.391Z,100761.88
2022-08-09T15:00:33.345Z,100780.78
2022-08-09T15:03:04.015Z,100786.19
2022-08-09T15:05:33.582Z,100776.59
2022-08-09T15:08:01.976Z,100760.22
2022-08-09T15:10:32.704Z,100767.91
2022-08-09T15:13:02.979Z,100765.72
2022-08-09T15:15:34.442Z,100757.91
2022-08-09T15:18:12.446Z,100764.97
2022-08-09T15:21:55.257Z,100750.56
2022-08-09T15:24:06.010Z,100747.75
2022-08-09T15:26:28.393Z,100749.06
2022-08-09T15:29:04.301Z,100749.94
2022-08-09T15:31:41.530Z,100753.47
2022-08-09T15:34:32.205Z,100754.28
2022-08-09T15:37:04.241Z,100750.34
2022-08-09T15:39:34.741Z,100758.09
2022-08-09T15:42:22.901Z,100751.97
2022-08-09T15:44:51.364Z,100734.38
2022-08-09T15:47:23.553Z,100737.78
2022-08-09T15:50:04.943Z,100735.09
2022-08-09T15:52:35.696Z,100730.09
2022-08-09T15:55:05.919Z,100723.38
2022-08-09T15:57:44.530Z,100719.03
2022-08-09T16:00:25.357Z,100719.41
2022-08-09T16:02:56.843Z,100725.44
2022-08-09T16:05:47.698Z,100733.28
2022-08-09T16:08:30.578Z,100728.72
2022-08-09T16:11:00.081Z,100729.59
2022-08-09T16:14:05.849Z,100730.09
2022-08-09T16:16:28.298Z,100728.69
2022-08-09T16:18:56.527Z,100731.81
2022-08-09T16:21:25.054Z,100728.75
2022-08-09T16:23:54.945Z,100720.66
2022-08-09T16:26:35.485Z,100722.22
2022-08-09T16:29:11.069Z,100715.34
2022-08-09T16:32:18.206Z,100715.22
2022-08-09T16:34:56.040Z,100717.28
2022-08-09T16:37:18.754Z,100711.78
2022-08-09T16:39:54.563Z,100707.97
2022-08-09T16:42:33.673Z,100715.97
2022-08-09T16:45:03.817Z,100714.56
2022-08-09T16:48:38.850Z,100712.00
2022-08-09T16:50:31.958Z,100713.28
2022-08-09T16:53:02.930Z,100720.00
2022-08-09T16:55:58.890Z,100728.84
2022-08-09T16:58:23.761Z,100719.47
2022-08-09T17:00:53.773Z,100731.41
2022-08-09T17:03:23.946Z,100722.09
2022-08-09T17:06:03.543Z,100726.03
2022-08-09T17:08:59.847Z,100721.09
2022-08-09T17:11:37.711Z,100723.81
2022-08-09T17:14:26.139Z,100723.25
2022-08-09T17:17:01.600Z,100710.13
2022-08-09T17:20:05.210Z,100716.09
2022-08-09T17:22:29.040Z,100731.03
2022-08-09T17:25:03.066Z,100723.94
2022-08-09T17:27:32.742Z,100713.06
2022-08-09T17:30:04.893Z,100717.75
2022-08-09T17:32:39.216Z,100718.47
2022-08-09T17:35:15.927Z,100723.03
2022-08-09T17:38:14.449Z,100720.06
2022-08-09T17:40:34.652Z,100722.81
2022-08-09T17:43:32.210Z,100723.44
2022-08-09T17:46:03.767Z,100725.97
2022-08-09T17:48:38.693Z,100722.28
2022-08-09T17:51:17.488Z,100723.59
2022-08-09T17:53:51.612Z,100728.94
2022-08-09T17:56:27.647Z,100736.84
2022-08-09T17:58:59.430Z,100736.66
2022-08-09T18:02:03.853Z,100738.25
2022-08-09T18:04:19.574Z,100742.03
2022-08-09T18:06:49.649Z,100738.63
2022-08-09T18:09:25.150Z,100745.78
2022-08-09T18:12:15.500Z,100739.63
2022-08-09T18:14:53.535Z,100744.22
2022-08-09T18:17:27.123Z,100732.44
2022-08-09T18:20:54.437Z,100739.44
2022-08-09T18:23:05.232Z,100744.63
2022-08-09T18:25:52.781Z,100747.91
2022-08-09T18:30:35.737Z,100742.59
2022-08-09T18:31:13.880Z,100739.91
2022-08-09T18:33:53.068Z,100749.13
2022-08-09T18:36:25.914Z,100747.03
2022-08-09T18:39:02.562Z,100749.63
2022-08-09T18:41:34.339Z,100745.84
2022-08-09T18:44:13.528Z,100747.41
2022-08-09T18:46:49.336Z,100745.88
2022-08-09T18:49:24.505Z,100745.00
2022-08-09T18:51:55.046Z,100751.44
2022-08-09T18:54:28.668Z,100739.50
2022-08-09T18:57:05.470Z,100756.38
2022-08-09T18:59:49.354Z,100761.22
2022-08-09T19:02:23.957Z,100766.59
2022-08-09T19:05:15.277Z,100767.38
2022-08-09T19:07:59.410Z,100760.00
2022-08-09T19:10:40.004Z,100775.38
2022-08-09T19:13:23.587Z,100783.84
2022-08-09T19:16:00.140Z,100778.06
2022-08-09T19:18:33.248Z,100784.13
2022-08-09T19:21:05.608Z,100780.63
2022-08-09T19:24:33.357Z,100786.09
2022-08-09T19:26:29.591Z,100791.81
2022-08-09T19:29:01.658Z,100797.22
2022-08-09T19:31:45.086Z,100794.84
2022-08-09T19:34:18.286Z,100792.19
2022-08-09T19:36:52.717Z,100795.50
2022-08-09T19:39:43.242Z,100797.03
2022-08-09T19:42:19.078Z,100802.28
2022-08-09T19:44:50.774Z,100797.06
2022-08-09T19:47:23.393Z,100800.84
2022-08-09T19:50:05.370Z,100802.56
2022-08-09T19:52:37.210Z,100806.84
2022-08-09T19:55:19.867Z,100812.44
2022-08-09T19:57:59.695Z,100810.59
2022-08-09T20:00:28.162Z,100808.84
2022-08-09T20:04:29.823Z,100817.22
2022-08-09T20:05:45.913Z,100813.00
2022-08-09T20:08:16.191Z,100821.31
2022-08-09T20:11:04.504Z,100811.63
2022-08-09T20:13:37.119Z,100814.00
2022-08-09T20:16:35.105Z,100825.19
2022-08-09T20:19:41.872Z,100829.88
2022-08-09T20:21:56.453Z,100823.44
2022-08-09T20:24:29.853Z,100824.63
2022-08-09T20:27:08.464Z,100831.91
2022-08-09T20:29:39.062Z,100832.31
2022-08-09T20:32:28.967Z,100823.84
2022-08-09T20:34:57.245Z,100826.88
2022-08-09T20:37:25.437Z,100819.13
2022-08-09T20:40:15.321Z,100828.56
2022-08-09T20:42:53.215Z,100829.41
2022-08-09T20:46:00.839Z,100840.88
2022-08-09T20:48:21.299Z,100842.22
2022-08-09T20:50:55.713Z,100846.25
2022-08-09T20:53:37.653Z,100835.31
2022-08-09T20:56:20.323Z,100838.81
2022-08-09T20:58:58.694Z,100840.00
2022-08-09T21:01:35.443Z,100847.28
2022-08-09T21:05:54.868Z,100834.88
2022-08-09T21:07:11.962Z,100836.22
2022-08-09T21:09:55.345Z,100845.53
2022-08-09T21:15:14.498Z,100841.56
2022-08-09T21:18:11.090Z,100840.41
2022-08-09T21:20:33.094Z,100842.25
2022-08-09T21:23:04.264Z,100846.91
2022-08-09T21:25:55.272Z,100843.06
2022-08-09T21:28:33.303Z,100840.19
2022-08-09T21:31:17.857Z,100838.41
2022-08-09T21:33:53.178Z,100844.38
2022-08-09T21:36:28.833Z,100841.38
2022-08-09T21:38:59.447Z,100846.34
2022-08-09T21:42:04.514Z,100855.78
2022-08-09T21:44:33.731Z,100861.75
2022-08-09T21:47:11.702Z,100856.78
2022-08-09T21:49:46.539Z,100858.91
2022-08-09T21:52:20.718Z,100865.66
2022-08-09T21:54:57.120Z,100853.91
2022-08-09T21:57:39.120Z,100865.00
2022-08-09T22:00:26.842Z,100862.50
2022-08-09T22:03:05.947Z,100866.38
2022-08-09T22:05:36.043Z,100862.03
2022-08-09T22:08:13.690Z,100866.34
2022-08-09T22:11:00.602Z,100859.81
2022-08-09T22:13:34.490Z,100871.56
2022-08-09T22:16:07.486Z,100872.66
2022-08-09T22:18:52.813Z,100860.59
2022-08-09T22:21:24.724Z,100871.03
2022-08-09T22:23:59.195Z,100877.63
2022-08-09T22:26:35.235Z,100878.28
2022-08-09T22:29:10.199Z,100876.59
2022-08-09T22:31:50.368Z,100876.13
2022-08-09T22:34:29.924Z,100878.91
2022-08-09T22:36:59.865Z,100878.81
2022-08-09T22:39:55.565Z,100883.75
2022-08-09T22:42:22.367Z,100880.03
2022-08-09T22:48:04.933Z,100877.78
2022-08-09T22:48:14.690Z,100874.25
2022-08-09T22:50:32.927Z,100881.13
2022-08-09T22:53:04.271Z,100883.56
2022-08-09T22:56:30.893Z,100875.06
2022-08-09T22:58:33.050Z,100881.84
2022-08-09T23:01:02.435Z,100876.31
2022-08-09T23:04:04.276Z,100863.28
2022-08-09T23:06:35.073Z,100866.72
2022-08-09T23:09:05.723Z,100868.75
2022-08-09T23:11:34.065Z,100878.88
2022-08-09T23:14:03.230Z,100868.69
2022-08-09T23:16:32.414Z,100873.31
2022-08-09T23:19:00.711Z,100873.69
2022-08-09T23:21:33.719Z,100875.38
2022-08-09T23:24:07.153Z,100877.66
2022-08-09T23:26:36.550Z,100872.81
2022-08-09T23:29:05.329Z,100879.31
2022-08-09T23:31:33.188Z,100870.09
2022-08-09T23:34:02.614Z,100873.75
2022-08-09T23:36:33.741Z,100876.22
2022-08-09T23:39:02.665Z,100866.22
2022-08-09T23:41:30.931Z,100859.19
2022-08-09T23:44:00.120Z,100859.59
2022-08-09T23:46:29.240Z,100866.88
2022-08-09T23:48:57.922Z,100863.69
2022-08-09T23:51:28.544Z,100865.25
2022-08-09T23:54:01.898Z,100865.66
2022-08-09T23:56:52.860Z,100865.00
2022-08-09T23:59:20.627Z,100863.44
